SKBO/BOG METAR and TAF weather

Enter ICAO airport designator
Station Type Date Time Source
SKBO METAR 2021/10/24 22:00 UTC NOAA

SKBO 242200Z 34005KT 9000 -DZ FEW010 BKN017TCU 15/14 Q1025 RETSRA NOSIG RMK TCU/SE A3029


Station Type Date Time Source
SKBO Decoded METAR 2021/10/24 22:00 UTC NOAA

Bogota / Eldorado, Colombia (SKBO) 04-43N 074-09W 2548M
Oct 24, 2021 - 06:00 PM EDT / 2021.10.24 2200 UTC
Wind: from the NNW (340 degrees) at 6 MPH (5 KT):0
Visibility: 5 mile(s):0
Sky conditions: mostly cloudy
Weather: light drizzle; rain with thunder during the past hour; Towering cumulus clouds observed
Temperature: 59 F (15 C)
Dew Point: 57 F (14 C)
Relative Humidity: 93%
Pressure (altimeter): 30.27 in. Hg (1025 hPa)
ob: SKBO 242200Z 34005KT 9000 -DZ FEW010 BKN017TCU 15/14 Q1025 RETSRA NOSIG RMK TCU/SE A3029
cycle: 22

Station Type Date Time Source
SKBO TAF 2021/10/24 18:57 UTC NOAA

TAF SKBO 241630Z 2418/2518 29010KT 9999 SCT020
TEMPO 2421/2423 RADZ SCT015TCU BKN090
BECMG 2501/2503 03004KT FEW020
TEMPO 2509/2512 5000 BCFG SCT010
BECMG 2515/2517 30010KT TX21/2418Z TN10/2510Z

Example: see airport list